Time;durP1;ratioP1;P1;durP2;ratioP2;P2;SDS_P1;SDS_P2;PMS_P1;PMS_P2;Temp;Humidity;BMP_temperature;BMP_pressure;BME280_temperature;BME280_humidity;BME280_pressure;Samples;Min_cycle;Max_cycle;Signal;HPM_P1;HPM_P2
2022/09/15 00:00:55;;;;;;;17.82;14.30;;;;;;;12.04;90.63;98455.74;1785424;80;21098;-76
2022/09/15 00:03:22;;;;;;;39.45;28.15;;;;;;;12.04;91.72;98454.42;1785793;80;21098;-77
2022/09/15 00:05:49;;;;;;;29.65;19.92;;;;;;;12.04;92.88;98458.38;1785551;80;21130;-78
2022/09/15 00:08:15;;;;;;;38.08;20.90;;;;;;;12.07;93.89;98458.21;1785784;80;21063;-77
2022/09/15 00:10:54;;;;;;;23.07;17.62;;;;;;;12.08;94.38;98449.34;1785446;80;21862;-77
2022/09/15 00:13:21;;;;;;;27.98;15.72;;;;;;;12.07;93.48;98452.94;1784877;80;21046;-77
2022/09/15 00:15:47;;;;;;;23.50;15.90;;;;;;;12.03;92.56;98443.48;1785871;80;21141;-77
2022/09/15 00:18:14;;;;;;;24.55;15.93;;;;;;;12.02;91.76;98447.92;1785796;80;21036;-77
2022/09/15 00:20:43;;;;;;;26.95;17.20;;;;;;;12.00;90.89;98443.66;1785806;80;21054;-77
2022/09/15 00:23:11;;;;;;;23.47;17.60;;;;;;;11.96;90.10;98438.20;1785463;80;21075;-77
2022/09/15 00:25:47;;;;;;;23.65;17.48;;;;;;;11.93;89.93;98437.05;1785455;80;21535;-77
2022/09/15 00:28:15;;;;;;;25.62;17.65;;;;;;;11.89;89.63;98431.92;1784964;80;21050;-77
2022/09/15 00:30:47;;;;;;;17.65;15.05;;;;;;;11.86;89.26;98439.99;1785567;80;21051;-77
2022/09/15 00:33:15;;;;;;;20.17;14.63;;;;;;;11.85;89.20;98442.27;1785471;80;21098;-77
2022/09/15 00:35:45;;;;;;;23.40;14.78;;;;;;;11.83;89.15;98439.33;1785563;80;21090;-77
2022/09/15 00:38:12;;;;;;;22.32;15.80;;;;;;;11.81;89.07;98446.00;1785583;80;21055;-77
2022/09/15 00:40:51;;;;;;;21.80;16.95;;;;;;;11.75;88.58;98442.41;1785557;80;21574;-76
2022/09/15 00:43:22;;;;;;;17.52;13.98;;;;;;;11.70;88.51;98443.11;1785411;80;21059;-77
2022/09/15 00:45:49;;;;;;;17.07;13.75;;;;;;;11.68;88.10;98439.27;1785370;80;21117;-77
2022/09/15 00:48:19;;;;;;;19.00;14.40;;;;;;;11.64;87.77;98445.64;1785548;80;21935;-77
2022/09/15 00:50:51;;;;;;;16.75;12.70;;;;;;;11.59;87.76;98443.73;1784228;80;21060;-77
2022/09/15 00:53:18;;;;;;;12.05;10.58;;;;;;;11.55;87.79;98440.02;1782330;80;21058;-76
2022/09/15 00:55:46;;;;;;;17.37;11.18;;;;;;;11.51;87.96;98434.92;1782335;80;21003;-77
2022/09/15 00:58:29;;;;;;;66.15;49.70;;;;;;;11.49;88.32;98439.44;1782589;80;20979;-77
2022/09/15 01:00:59;;;;;;;58.50;47.13;;;;;;;11.47;89.50;98443.95;1782510;80;21788;-77
2022/09/15 01:03:29;;;;;;;33.83;27.05;;;;;;;11.48;91.41;98436.44;1782605;80;21502;-77
2022/09/15 01:06:01;;;;;;;37.17;22.82;;;;;;;11.56;93.18;98440.42;1782359;80;21059;-77
2022/09/15 01:08:41;;;;;;;29.87;21.55;;;;;;;11.61;94.22;98437.06;1782106;80;21071;-77
2022/09/15 01:11:07;;;;;;;20.80;15.95;;;;;;;11.65;94.78;98442.52;1782598;80;21070;-77
2022/09/15 01:13:35;;;;;;;16.37;13.45;;;;;;;11.67;95.79;98436.72;1782385;80;21881;-77
2022/09/15 01:16:42;;;;;;;18.00;14.60;;;;;;;11.70;96.35;98437.84;1782219;80;20999;-75
2022/09/15 01:19:46;;;;;;;133.30;85.12;;;;;;;11.72;97.19;98432.05;1782137;80;21507;-76
2022/09/15 01:23:02;;;;;;;80.12;55.65;;;;;;;11.75;98.01;98423.97;1782420;80;21026;-77
2022/09/15 01:25:41;;;;;;;43.33;30.23;;;;;;;11.79;98.84;98414.94;1781804;80;21058;-76
2022/09/15 01:28:47;;;;;;;16.52;13.53;;;;;;;11.83;98.94;98405.06;1782314;80;21128;-77
2022/09/15 01:33:02;;;;;;;22.95;15.70;;;;;;;11.87;99.16;98406.13;1782415;80;21491;-78
2022/09/15 01:34:15;;;;;;;57.13;36.45;;;;;;;11.92;99.73;98398.44;1780078;80;21054;-77
2022/09/15 01:36:47;;;;;;;36.35;28.00;;;;;;;11.96;100.00;98405.25;1782416;80;21074;-77
2022/09/15 01:39:21;;;;;;;24.50;15.55;;;;;;;12.00;100.00;98400.16;1782616;80;22898;-77
2022/09/15 01:41:52;;;;;;;27.32;22.67;;;;;;;12.04;100.00;98397.75;1793765;80;21184;-76
2022/09/15 01:44:24;;;;;;;18.37;12.33;;;;;;;12.07;100.00;98397.56;1793676;80;21404;-77
2022/09/15 01:47:00;;;;;;;14.03;11.50;;;;;;;12.13;100.00;98397.67;1793723;80;21038;-77
2022/09/15 01:49:30;;;;;;;17.30;11.00;;;;;;;12.18;100.00;98394.28;1765348;80;21061;-77
2022/09/15 01:51:56;;;;;;;11.93;8.98;;;;;;;12.22;100.00;98391.39;1793993;80;20974;-77
2022/09/15 01:54:27;;;;;;;11.85;8.63;;;;;;;12.26;100.00;98384.97;1793708;80;21599;-75
2022/09/15 01:56:54;;;;;;;13.65;8.40;;;;;;;12.31;100.00;98383.87;1793628;80;21068;-76
2022/09/15 01:59:20;;;;;;;12.90;10.15;;;;;;;12.36;100.00;98383.13;1791097;79;21057;-77
2022/09/15 02:02:00;;;;;;;15.15;11.70;;;;;;;12.40;100.00;98385.94;1793694;80;21120;-78
2022/09/15 02:04:35;;;;;;;15.15;9.20;;;;;;;12.44;100.00;98375.59;1793287;80;21037;-77
2022/09/15 02:07:12;;;;;;;13.22;10.68;;;;;;;12.48;100.00;98377.09;1793675;80;21212;-77
2022/09/15 02:09:53;;;;;;;12.73;11.43;;;;;;;12.50;100.00;98373.88;1793945;80;20986;-77
2022/09/15 02:12:44;;;;;;;11.78;9.30;;;;;;;12.55;100.00;98371.81;1793709;80;21104;-77
2022/09/15 02:15:13;;;;;;;19.60;17.57;;;;;;;12.59;100.00;98372.02;1794415;80;21572;-77
2022/09/15 02:17:45;;;;;;;27.37;21.33;;;;;;;12.65;100.00;98380.02;1793907;80;20962;-77
2022/09/15 02:20:22;;;;;;;28.50;20.12;;;;;;;12.67;100.00;98379.93;1794031;80;21738;-77
2022/09/15 02:22:56;;;;;;;22.00;16.42;;;;;;;12.70;100.00;98378.42;1793392;80;21041;-77
2022/09/15 02:25:32;;;;;;;19.35;17.07;;;;;;;12.73;100.00;98378.24;1793771;80;20983;-77
2022/09/15 02:28:03;;;;;;;23.30;17.70;;;;;;;12.74;100.00;98375.96;1794204;80;21046;-76
2022/09/15 02:30:30;;;;;;;24.75;20.52;;;;;;;12.75;100.00;98377.67;1794338;80;20978;-77
2022/09/15 02:33:05;;;;;;;28.70;24.87;;;;;;;12.77;100.00;98375.30;1793605;80;21106;-76
2022/09/15 02:35:33;;;;;;;17.65;12.98;;;;;;;12.77;100.00;98376.62;1765550;80;21109;-77
2022/09/15 02:38:00;;;;;;;18.30;16.30;;;;;;;12.75;100.00;98378.51;1793670;80;21375;-77
2022/09/15 02:40:27;;;;;;;16.62;12.80;;;;;;;12.74;100.00;98376.83;1793737;80;21323;-76
2022/09/15 02:42:59;;;;;;;11.40;9.40;;;;;;;12.75;100.00;98376.34;1793408;80;21014;-77
2022/09/15 02:45:26;;;;;;;11.18;9.55;;;;;;;12.73;100.00;98373.80;1793790;80;21131;-75
2022/09/15 02:47:53;;;;;;;11.97;8.43;;;;;;;12.74;100.00;98379.92;1793722;80;21521;-77
2022/09/15 02:50:20;;;;;;;9.45;8.43;;;;;;;12.73;100.00;98376.92;1793560;80;21659;-77
2022/09/15 02:52:46;;;;;;;9.43;8.35;;;;;;;12.72;100.00;98367.30;1793464;80;21572;-77
2022/09/15 02:55:12;;;;;;;9.63;8.35;;;;;;;12.72;100.00;98365.50;1793494;80;21559;-76
2022/09/15 02:57:39;;;;;;;9.80;8.25;;;;;;;12.74;100.00;98366.72;1793373;80;21269;-77
2022/09/15 03:00:12;;;;;;;11.05;7.80;;;;;;;12.75;100.00;98367.11;1793528;80;21136;-77
2022/09/15 03:02:40;;;;;;;8.88;7.55;;;;;;;12.73;100.00;98360.61;1793306;80;21050;-77
2022/09/15 03:05:07;;;;;;;9.73;7.28;;;;;;;12.75;99.62;98351.28;1793879;80;21034;-77
2022/09/15 03:07:36;;;;;;;8.85;6.75;;;;;;;12.73;98.91;98355.81;1793773;80;20987;-76
2022/09/15 03:10:04;;;;;;;9.18;7.22;;;;;;;12.72;98.46;98351.46;1793579;80;21176;-76
2022/09/15 03:12:36;;;;;;;6.83;6.22;;;;;;;12.70;97.99;98345.44;1793359;80;21329;-77
2022/09/15 03:15:04;;;;;;;10.25;6.40;;;;;;;12.69;97.55;98340.61;1794008;80;21030;-77
2022/09/15 03:17:34;;;;;;;7.67;5.80;;;;;;;12.66;97.08;98330.72;1793670;80;21544;-76
2022/09/15 03:20:03;;;;;;;6.60;5.97;;;;;;;12.63;96.69;98329.97;1794222;80;21520;-77
2022/09/15 03:22:30;;;;;;;8.53;6.95;;;;;;;12.60;96.28;98332.80;1793901;80;21783;-76
2022/09/15 03:24:57;;;;;;;7.12;6.42;;;;;;;12.60;95.91;98328.84;1793699;80;20943;-77
2022/09/15 03:27:23;;;;;;;8.18;5.83;;;;;;;12.59;95.81;98332.44;1793743;80;21450;-77
2022/09/15 03:29:49;;;;;;;9.98;6.58;;;;;;;12.58;95.66;98329.41;1793482;80;22268;-77
2022/09/15 03:32:16;;;;;;;6.47;5.85;;;;;;;12.56;95.47;98318.11;1793484;80;21624;-77
2022/09/15 03:34:42;;;;;;;6.62;6.03;;;;;;;12.55;95.21;98316.41;1793710;79;21588;-77
2022/09/15 03:37:09;;;;;;;7.08;6.33;;;;;;;12.54;95.07;98320.00;1793823;80;21065;-76
2022/09/15 03:39:35;;;;;;;13.53;6.65;;;;;;;12.54;95.05;98312.53;1793837;80;21068;-77
2022/09/15 03:42:02;;;;;;;13.30;6.17;;;;;;;12.50;94.83;98305.29;1793808;80;21077;-76
2022/09/15 03:44:29;;;;;;;5.87;5.28;;;;;;;12.47;94.57;98300.20;1794005;80;21496;-76
2022/09/15 03:46:57;;;;;;;8.70;7.50;;;;;;;12.48;94.26;98297.95;1793707;80;22152;-77
2022/09/15 03:49:24;;;;;;;8.48;7.67;;;;;;;12.47;94.46;98302.00;1794170;80;21070;-77
2022/09/15 03:51:50;;;;;;;9.85;7.00;;;;;;;12.43;94.85;98314.53;1791551;79;21045;-75
2022/09/15 03:54:17;;;;;;;8.60;6.15;;;;;;;12.40;95.30;98319.99;1787812;80;22054;-76
2022/09/15 03:56:46;;;;;;;8.30;6.87;;;;;;;12.39;95.35;98313.01;1787864;80;21551;-77
2022/09/15 03:59:12;;;;;;;7.80;7.00;;;;;;;12.42;95.44;98318.10;1788170;80;21510;-77
2022/09/15 04:01:39;;;;;;;10.43;8.45;;;;;;;12.43;95.63;98325.08;1788153;80;20989;-77
2022/09/15 04:04:06;;;;;;;12.03;8.08;;;;;;;12.45;95.89;98328.47;1787961;80;21077;-75
2022/09/15 04:06:34;;;;;;;11.15;8.08;;;;;;;12.47;96.22;98327.90;1787693;80;21050;-77
2022/09/15 04:09:00;;;;;;;8.70;7.85;;;;;;;12.49;96.40;98323.40;1788152;80;21918;-77
2022/09/15 04:11:27;;;;;;;10.45;8.25;;;;;;;12.50;96.48;98332.98;1787901;80;22109;-76
2022/09/15 04:13:53;;;;;;;9.15;8.23;;;;;;;12.53;96.48;98342.04;1787905;80;21514;-76
2022/09/15 04:16:22;;;;;;;8.98;8.08;;;;;;;12.55;96.65;98328.76;1788315;80;21564;-77
2022/09/15 04:18:50;;;;;;;9.03;8.13;;;;;;;12.57;96.70;98323.75;1788061;80;21065;-76
2022/09/15 04:21:22;;;;;;;12.05;8.58;;;;;;;12.58;96.77;98318.86;1788020;80;20995;-77
2022/09/15 04:23:49;;;;;;;10.05;8.83;;;;;;;12.61;96.93;98330.55;1788163;80;21106;-77
2022/09/15 04:26:27;;;;;;;10.35;8.35;;;;;;;12.59;97.50;98349.59;1788149;80;21058;-77
2022/09/15 04:28:53;;;;;;;10.05;7.83;;;;;;;12.56;98.26;98360.81;1788196;80;21117;-77
2022/09/15 04:31:20;;;;;;;9.58;8.30;;;;;;;12.50;99.47;98349.30;1788205;80;21113;-76
2022/09/15 04:33:47;;;;;;;12.45;9.33;;;;;;;12.48;100.00;98338.00;1788238;80;22306;-75
2022/09/15 04:36:23;;;;;;;11.75;8.95;;;;;;;12.49;100.00;98331.31;1788030;80;21793;-77
2022/09/15 04:38:50;;;;;;;10.63;8.30;;;;;;;12.53;100.00;98334.61;1787826;80;21069;-77
2022/09/15 04:41:17;;;;;;;9.60;8.23;;;;;;;12.57;100.00;98341.38;1788261;80;21113;-77
2022/09/15 04:43:44;;;;;;;15.30;9.20;;;;;;;12.62;100.00;98333.58;1787979;80;21081;-77
2022/09/15 04:46:11;;;;;;;11.05;8.70;;;;;;;12.66;100.00;98330.72;1788307;80;20971;-77
2022/09/15 04:48:38;;;;;;;9.75;8.10;;;;;;;12.71;100.00;98318.08;1787674;80;21640;-76
2022/09/15 04:51:07;;;;;;;12.43;8.28;;;;;;;12.76;100.00;98305.45;1788018;80;21026;-77
2022/09/15 04:53:34;;;;;;;10.75;8.25;;;;;;;12.82;100.00;98295.83;1790438;78;20999;-76
2022/09/15 04:56:17;;;;;;;9.40;8.05;;;;;;;12.88;100.00;98293.27;1791059;80;21025;-78
2022/09/15 04:58:57;;;;;;;10.40;8.00;;;;;;;12.95;100.00;98295.42;1769926;80;21307;-77
2022/09/15 05:01:26;;;;;;;15.60;7.40;;;;;;;12.99;100.00;98292.98;1790958;80;21493;-76
2022/09/15 05:03:53;;;;;;;9.13;6.65;;;;;;;13.06;100.00;98289.92;1791142;80;20931;-77
2022/09/15 05:06:22;;;;;;;12.47;7.67;;;;;;;13.11;100.00;98286.06;1790826;80;21168;-77
2022/09/15 05:08:51;;;;;;;8.28;7.53;;;;;;;13.14;100.00;98289.80;1791165;80;21057;-76
2022/09/15 05:11:19;;;;;;;11.63;7.58;;;;;;;13.18;100.00;98286.03;1790985;80;21085;-76
2022/09/15 05:13:46;;;;;;;12.55;9.13;;;;;;;13.22;100.00;98281.39;1791046;80;21110;-76
2022/09/15 05:16:18;;;;;;;10.80;8.23;;;;;;;13.28;100.00;98285.41;1790974;80;21011;-76
2022/09/15 05:18:46;;;;;;;10.28;8.08;;;;;;;13.31;100.00;98285.22;1790842;80;21053;-77
2022/09/15 05:21:14;;;;;;;10.45;7.50;;;;;;;13.35;100.00;98280.99;1791167;80;21105;-77
2022/09/15 05:23:40;;;;;;;9.03;8.03;;;;;;;13.39;100.00;98280.31;1791028;80;20988;-77
2022/09/15 05:26:13;;;;;;;12.45;7.80;;;;;;;13.45;100.00;98280.37;1790729;80;21934;-76
2022/09/15 05:28:40;;;;;;;9.30;7.72;;;;;;;13.49;100.00;98269.98;1791124;80;21078;-76
2022/09/15 05:31:22;;;;;;;17.62;7.90;;;;;;;13.52;100.00;98269.30;1791011;80;21027;-76
2022/09/15 05:33:50;;;;;;;9.35;7.72;;;;;;;13.54;100.00;98280.61;1764735;80;21122;-78
2022/09/15 05:36:19;;;;;;;12.47;7.50;;;;;;;13.55;100.00;98272.23;1790864;80;21607;-77
2022/09/15 05:38:45;;;;;;;10.20;7.67;;;;;;;13.56;100.00;98279.19;1790979;80;21104;-76
2022/09/15 05:41:19;;;;;;;11.35;8.13;;;;;;;13.59;100.00;98280.80;1790913;80;20983;-76
2022/09/15 05:43:44;;;;;;;10.28;7.62;;;;;;;13.59;100.00;98276.34;1789550;80;21034;-77
2022/09/15 05:46:11;;;;;;;11.00;7.22;;;;;;;13.59;100.00;98273.70;1791342;80;22085;-77
2022/09/15 05:48:39;;;;;;;10.20;7.33;;;;;;;13.59;100.00;98278.98;1790784;80;21089;-78
2022/09/15 05:51:05;;;;;;;9.65;7.72;;;;;;;13.60;100.00;98278.05;1791122;80;21056;-76
2022/09/15 05:53:33;;;;;;;18.20;7.70;;;;;;;13.64;100.00;98286.14;1788564;80;21023;-76
2022/09/15 05:56:04;;;;;;;8.93;6.70;;;;;;;13.67;100.00;98284.61;1788259;80;20984;-78
2022/09/15 05:58:30;;;;;;;10.82;7.37;;;;;;;13.68;100.00;98281.00;1787763;80;21247;-77
2022/09/15 06:01:06;;;;;;;16.67;8.43;;;;;;;13.70;100.00;98285.73;1787848;80;21054;-76
2022/09/15 06:03:34;;;;;;;8.55;7.62;;;;;;;13.71;100.00;98290.53;1759803;80;21798;-77
2022/09/15 06:06:02;;;;;;;9.00;7.15;;;;;;;13.74;100.00;98296.46;1787763;80;21145;-77
2022/09/15 06:08:34;;;;;;;9.48;7.08;;;;;;;13.77;100.00;98294.55;1787786;80;21050;-77
2022/09/15 06:11:07;;;;;;;11.80;7.90;;;;;;;13.79;100.00;98300.61;1787841;80;21006;-76
2022/09/15 06:13:34;;;;;;;9.13;7.10;;;;;;;13.82;100.00;98288.48;1788403;80;21707;-77
2022/09/15 06:16:04;;;;;;;9.75;7.95;;;;;;;13.84;100.00;98294.53;1787922;80;21687;-77
2022/09/15 06:18:32;;;;;;;11.25;7.35;;;;;;;13.87;100.00;98292.98;1788135;79;21003;-77
2022/09/15 06:21:05;;;;;;;10.50;8.08;;;;;;;13.91;100.00;98294.48;1788076;80;21050;-77
2022/09/15 06:23:31;;;;;;;10.55;6.87;;;;;;;13.95;100.00;98301.24;1787721;80;21117;-77
2022/09/15 06:26:11;;;;;;;13.58;7.83;;;;;;;13.99;100.00;98296.63;1788029;80;22018;-77
2022/09/15 06:28:39;;;;;;;11.50;8.58;;;;;;;14.03;100.00;98302.89;1787883;80;22052;-76
2022/09/15 06:31:11;;;;;;;12.45;7.67;;;;;;;14.05;100.00;98294.37;1787771;80;21082;-77
2022/09/15 06:33:49;;;;;;;13.75;8.33;;;;;;;14.11;100.00;98283.87;1787986;80;20994;-76
2022/09/15 06:36:16;;;;;;;8.68;7.78;;;;;;;14.16;100.00;98283.07;1787914;80;20963;-77
2022/09/15 06:38:43;;;;;;;8.83;7.55;;;;;;;14.20;100.00;98286.34;1788409;80;21010;-77
2022/09/15 06:41:10;;;;;;;10.93;7.97;;;;;;;14.24;100.00;98281.20;1788218;80;21102;-77
2022/09/15 06:43:37;;;;;;;9.23;7.20;;;;;;;14.28;100.00;98269.47;1787853;80;21035;-77
2022/09/15 06:46:11;;;;;;;17.45;7.37;;;;;;;14.31;100.00;98274.06;1787988;80;20968;-76
2022/09/15 06:48:38;;;;;;;12.40;7.78;;;;;;;14.37;100.00;98272.78;1787773;80;21172;-77
2022/09/15 06:51:06;;;;;;;14.47;7.47;;;;;;;14.40;100.00;98269.92;1788213;80;21026;-77
2022/09/15 06:53:34;;;;;;;11.85;8.38;;;;;;;14.43;100.00;98261.77;1787823;80;21186;-77
2022/09/15 06:56:10;;;;;;;9.33;7.33;;;;;;;14.47;100.00;98271.20;1787540;80;20998;-76
2022/09/15 06:58:39;;;;;;;17.10;7.60;;;;;;;14.50;100.00;98270.96;1787915;80;21121;-77
2022/09/15 07:01:08;;;;;;;13.95;7.40;;;;;;;14.54;100.00;98274.27;1788057;80;21006;-77
2022/09/15 07:03:36;;;;;;;10.35;7.75;;;;;;;14.58;100.00;98270.92;1788295;80;21093;-76
2022/09/15 07:06:03;;;;;;;12.70;7.42;;;;;;;14.58;100.00;98273.08;1787964;80;21146;-76
2022/09/15 07:08:30;;;;;;;12.20;7.85;;;;;;;14.61;100.00;98265.45;1787809;80;21045;-77
2022/09/15 07:10:58;;;;;;;16.57;7.95;;;;;;;14.66;100.00;98261.98;1788039;80;21093;-77
2022/09/15 07:13:25;;;;;;;10.00;7.65;;;;;;;14.71;100.00;98257.20;1788027;80;21053;-77
2022/09/15 07:15:57;;;;;;;12.55;7.12;;;;;;;14.77;100.00;98262.05;1787883;80;21001;-77
2022/09/15 07:18:24;;;;;;;11.48;7.22;;;;;;;14.84;100.00;98264.64;1788138;80;21174;-76
2022/09/15 07:20:50;;;;;;;11.88;7.08;;;;;;;14.94;100.00;98266.12;1787953;80;21121;-77
2022/09/15 07:23:17;;;;;;;14.10;7.28;;;;;;;15.04;100.00;98258.35;1788312;80;21057;-77
2022/09/15 07:25:44;;;;;;;14.05;6.75;;;;;;;15.12;100.00;98263.94;1787905;80;21097;-77
2022/09/15 07:28:11;;;;;;;13.10;7.22;;;;;;;15.18;100.00;98257.33;1788025;80;21050;-77
2022/09/15 07:30:38;;;;;;;10.05;6.40;;;;;;;15.24;100.00;98250.27;1787779;80;21660;-78
2022/09/15 07:33:08;;;;;;;12.68;6.87;;;;;;;15.32;100.00;98249.22;1788233;80;21081;-77
2022/09/15 07:35:36;;;;;;;14.58;6.78;;;;;;;15.42;100.00;98246.73;1787830;79;21049;-77
2022/09/15 07:38:03;;;;;;;12.28;6.47;;;;;;;15.48;100.00;98238.79;1782584;80;21459;-77
2022/09/15 07:40:30;;;;;;;13.68;7.33;;;;;;;15.53;99.43;98244.13;1788561;80;21003;-77
2022/09/15 07:42:57;;;;;;;12.70;6.72;;;;;;;15.56;99.32;98246.52;1787930;80;21876;-77
2022/09/15 07:45:23;;;;;;;12.90;6.90;;;;;;;15.61;98.89;98246.19;1788258;80;21521;-77
2022/09/15 07:47:50;;;;;;;9.23;6.80;;;;;;;15.65;98.12;98244.14;1788071;80;21711;-77
2022/09/15 07:50:17;;;;;;;10.82;6.90;;;;;;;15.67;97.99;98232.47;1788112;80;21093;-77
2022/09/15 07:52:43;;;;;;;12.73;7.05;;;;;;;15.70;97.78;98229.59;1787655;80;21033;-76
2022/09/15 07:55:10;;;;;;;12.20;7.22;;;;;;;15.74;97.35;98235.50;1788191;80;21121;-77
2022/09/15 07:57:36;;;;;;;13.45;7.37;;;;;;;15.77;97.03;98235.30;1788002;80;22255;-76
2022/09/15 08:00:03;;;;;;;14.47;7.30;;;;;;;15.82;96.64;98233.60;1788106;80;21438;-76
2022/09/15 08:02:32;;;;;;;10.40;6.80;;;;;;;15.86;96.50;98235.08;1787429;80;21168;-77
2022/09/15 08:04:58;;;;;;;9.53;6.83;;;;;;;15.89;96.25;98243.64;1788209;80;21093;-76
2022/09/15 08:07:25;;;;;;;11.10;6.90;;;;;;;15.92;96.09;98239.43;1788264;80;21075;-77
2022/09/15 08:09:51;;;;;;;13.80;7.67;;;;;;;15.96;95.94;98232.08;1787849;80;20978;-76
2022/09/15 08:12:18;;;;;;;9.40;6.33;;;;;;;15.97;95.67;98226.66;1787996;80;21132;-76
2022/09/15 08:14:45;;;;;;;15.50;7.60;;;;;;;16.00;95.19;98235.33;1787849;80;20983;-77
2022/09/15 08:17:12;;;;;;;10.72;6.62;;;;;;;16.02;94.94;98236.05;1787795;80;21219;-77
2022/09/15 08:19:38;;;;;;;10.15;7.10;;;;;;;16.04;94.92;98226.16;1787987;80;21962;-77
2022/09/15 08:22:05;;;;;;;10.40;6.70;;;;;;;16.06;94.81;98225.58;1787650;80;22019;-77
2022/09/15 08:24:32;;;;;;;12.50;6.50;;;;;;;16.09;94.56;98224.02;1787917;80;21597;-77
2022/09/15 08:26:58;;;;;;;8.68;6.15;;;;;;;16.12;94.38;98229.06;1787893;80;21062;-77
2022/09/15 08:29:24;;;;;;;12.13;6.65;;;;;;;16.16;94.01;98227.88;1788337;80;21038;-77
2022/09/15 08:31:51;;;;;;;9.50;7.30;;;;;;;16.20;93.84;98225.81;1787973;80;21220;-77
2022/09/15 08:34:17;;;;;;;8.43;6.85;;;;;;;16.20;93.72;98222.67;1788117;80;21144;-77
2022/09/15 08:36:44;;;;;;;12.82;6.90;;;;;;;16.23;93.97;98226.91;1788240;80;21002;-76
2022/09/15 08:39:11;;;;;;;11.22;7.28;;;;;;;16.22;93.73;98218.58;1788078;80;21030;-77
2022/09/15 08:41:42;;;;;;;9.50;6.40;;;;;;;16.20;94.04;98214.71;1788309;80;20994;-76
2022/09/15 08:44:50;;;;;;;12.15;6.83;;;;;;;16.18;94.28;98207.36;1787399;80;21215;-77
2022/09/15 08:47:28;;;;;;;7.42;6.55;;;;;;;16.20;94.57;98215.20;1788254;80;21054;-77
2022/09/15 08:50:15;;;;;;;16.70;6.70;;;;;;;16.22;94.64;98215.42;1787919;80;22194;-77
2022/09/15 08:52:54;;;;;;;10.60;6.17;;;;;;;16.24;94.37;98213.98;1787418;79;21046;-77
2022/09/15 08:55:37;;;;;;;11.10;6.60;;;;;;;16.26;94.43;98212.91;1787914;80;21552;-77
2022/09/15 08:58:04;;;;;;;7.60;6.33;;;;;;;16.31;94.60;98208.08;1788105;80;21125;-76
2022/09/15 09:00:31;;;;;;;9.93;6.80;;;;;;;16.35;94.57;98212.17;1788044;80;21018;-77
2022/09/15 09:03:18;;;;;;;8.78;6.58;;;;;;;16.40;94.24;98213.62;1788092;80;21026;-77
2022/09/15 09:06:17;;;;;;;7.97;5.90;;;;;;;16.42;93.85;98217.84;1787920;80;21472;-76
2022/09/15 09:09:32;;;;;;;10.35;6.60;;;;;;;16.43;93.91;98213.39;1787861;80;21033;-76
2022/09/15 09:12:17;;;;;;;9.80;6.17;;;;;;;16.41;93.79;98216.16;1788262;80;21139;-76
2022/09/15 09:14:58;;;;;;;9.53;6.40;;;;;;;16.41;93.48;98208.66;1788109;80;21031;-76
2022/09/15 09:17:43;;;;;;;8.90;6.50;;;;;;;16.42;93.39;98203.73;1787603;80;21046;-77
2022/09/15 09:20:48;;;;;;;10.32;6.22;;;;;;;16.40;92.81;98203.84;1787437;80;21002;-76
2022/09/15 09:23:18;;;;;;;7.58;6.87;;;;;;;16.40;93.15;98206.50;1788380;80;21061;-77
2022/09/15 09:25:45;;;;;;;9.60;6.45;;;;;;;16.42;93.58;98209.87;1787978;80;21251;-76
2022/09/15 09:28:22;;;;;;;13.32;6.28;;;;;;;16.44;93.28;98211.08;1788179;80;21010;-77
2022/09/15 09:30:49;;;;;;;10.23;6.67;;;;;;;16.47;93.38;98211.67;1787950;80;21578;-76
2022/09/15 09:33:39;;;;;;;10.00;6.12;;;;;;;16.51;92.41;98208.31;1787833;80;22053;-77
2022/09/15 09:36:07;;;;;;;6.65;5.95;;;;;;;16.53;92.41;98206.38;1787651;80;21038;-76
2022/09/15 09:38:37;;;;;;;13.13;5.90;;;;;;;16.55;92.44;98201.78;1788195;80;21093;-76
2022/09/15 09:41:24;;;;;;;8.63;5.45;;;;;;;16.58;92.43;98197.55;1787757;80;20979;-76
2022/09/15 09:43:51;;;;;;;11.08;5.67;;;;;;;16.66;92.17;98201.77;1787785;80;20987;-75
2022/09/15 09:46:18;;;;;;;8.83;5.55;;;;;;;16.74;91.82;98200.30;1788184;80;20994;-76
2022/09/15 09:49:07;;;;;;;20.43;12.20;;;;;;;16.78;91.83;98199.06;1788258;80;21062;-76
2022/09/15 09:51:52;;;;;;;13.05;6.95;;;;;;;16.82;91.81;98198.70;1787960;80;21179;-77
2022/09/15 09:54:23;;;;;;;6.80;5.22;;;;;;;16.90;90.99;98206.92;1789466;79;21010;-76
2022/09/15 09:56:51;;;;;;;14.10;6.58;;;;;;;16.93;90.71;98204.52;1790916;80;21042;-77
2022/09/15 09:59:35;;;;;;;5.62;5.10;;;;;;;16.95;90.85;98198.58;1790732;80;21105;-77
2022/09/15 10:02:17;;;;;;;9.53;4.97;;;;;;;17.00;90.61;98208.84;1791294;80;21160;-77
2022/09/15 10:04:49;;;;;;;7.97;5.25;;;;;;;17.02;90.04;98213.05;1790921;80;21781;-77
2022/09/15 10:07:21;;;;;;;6.00;4.97;;;;;;;17.00;89.88;98213.66;1791045;80;21041;-77
2022/09/15 10:09:57;;;;;;;7.97;5.10;;;;;;;17.03;89.76;98216.53;1790752;80;21037;-76
2022/09/15 10:12:39;;;;;;;7.83;5.28;;;;;;;17.05;89.52;98216.78;1791446;80;21192;-77
2022/09/15 10:15:09;;;;;;;5.55;4.83;;;;;;;17.08;89.77;98219.69;1791143;80;21462;-76
2022/09/15 10:17:40;;;;;;;7.10;4.90;;;;;;;17.13;89.86;98220.62;1791070;80;21045;-77
2022/09/15 10:20:31;;;;;;;5.92;5.33;;;;;;;17.18;89.84;98218.42;1790538;80;21121;-77
2022/09/15 10:23:10;;;;;;;5.62;5.03;;;;;;;17.23;89.98;98214.89;1790765;80;21128;-77
2022/09/15 10:25:37;;;;;;;6.00;4.22;;;;;;;17.33;89.70;98223.82;1787877;80;21038;-77
2022/09/15 10:28:22;;;;;;;5.30;4.78;;;;;;;17.37;88.82;98222.58;1790971;80;21612;-77
2022/09/15 10:31:03;;;;;;;7.97;4.55;;;;;;;17.37;88.23;98227.06;1790775;80;21216;-77
2022/09/15 10:33:36;;;;;;;6.40;3.98;;;;;;;17.36;88.90;98218.72;1790627;80;20974;-77
2022/09/15 10:36:07;;;;;;;4.62;4.20;;;;;;;17.36;88.76;98216.89;1790799;80;21041;-76
2022/09/15 10:38:48;;;;;;;8.30;4.28;;;;;;;17.38;88.97;98210.98;1788241;80;21065;-77
2022/09/15 10:41:31;;;;;;;4.33;3.92;;;;;;;17.44;88.82;98206.95;1791065;80;21508;-77
2022/09/15 10:44:30;;;;;;;5.72;3.80;;;;;;;17.51;88.08;98196.66;1790994;80;21128;-76
2022/09/15 10:47:17;;;;;;;17.32;4.53;;;;;;;17.57;87.54;98190.83;1790586;80;21026;-76
2022/09/15 10:50:10;;;;;;;4.50;3.90;;;;;;;17.58;86.43;98194.66;1790038;80;22176;-77
2022/09/15 10:52:54;;;;;;;6.37;4.10;;;;;;;17.55;85.38;98191.41;1790192;80;21045;-77
2022/09/15 10:55:43;;;;;;;7.80;3.98;;;;;;;17.50;85.32;98185.18;1789156;79;21045;-76
2022/09/15 10:58:24;;;;;;;7.58;4.25;;;;;;;17.51;85.26;98183.36;1788399;80;21258;-77
2022/09/15 11:01:50;;;;;;;6.15;3.80;;;;;;;17.57;85.24;98185.50;1788843;80;21517;-77
2022/09/15 11:04:37;;;;;;;9.25;3.72;;;;;;;17.63;85.24;98184.97;1788578;80;21050;-77
2022/09/15 11:07:37;;;;;;;4.10;3.70;;;;;;;17.66;84.43;98187.37;1788373;80;21552;-76
2022/09/15 11:10:37;;;;;;;6.40;3.65;;;;;;;17.68;83.98;98185.41;1788863;80;21603;-77
2022/09/15 11:13:30;;;;;;;5.58;3.85;;;;;;;17.70;83.50;98177.30;1788802;80;21094;-78
2022/09/15 11:16:14;;;;;;;3.98;3.62;;;;;;;17.71;83.54;98174.52;1788464;80;20963;-75
2022/09/15 11:19:04;;;;;;;4.17;3.80;;;;;;;17.73;83.60;98175.22;1781930;80;21030;-77
2022/09/15 11:21:41;;;;;;;9.55;6.58;;;;;;;17.75;83.71;98170.64;1771976;80;21082;-77
2022/09/15 11:24:31;;;;;;;6.15;4.30;;;;;;;17.79;83.83;98174.70;1785538;80;21065;-77
2022/09/15 11:27:17;;;;;;;14.18;6.95;;;;;;;17.82;83.52;98173.62;1788847;80;21921;-76
2022/09/15 11:30:15;;;;;;;9.90;4.40;;;;;;;17.82;83.64;98169.13;1788699;80;21061;-76
2022/09/15 11:32:51;;;;;;;6.05;3.90;;;;;;;17.82;83.34;98159.81;1788599;80;21509;-77
2022/09/15 11:35:35;;;;;;;10.75;4.22;;;;;;;17.83;82.84;98154.83;1788562;80;21006;-77
2022/09/15 11:38:28;;;;;;;5.62;3.42;;;;;;;17.84;82.60;98149.05;1788357;80;21077;-77
2022/09/15 11:41:12;;;;;;;4.12;3.60;;;;;;;17.86;82.84;98142.27;1788857;80;21751;-75
2022/09/15 11:44:05;;;;;;;4.67;3.90;;;;;;;17.88;82.96;98145.16;1788837;80;22143;-78
2022/09/15 11:47:03;;;;;;;7.40;3.80;;;;;;;17.92;82.95;98147.06;1780724;80;21093;-77
2022/09/15 11:49:47;;;;;;;5.20;3.70;;;;;;;17.94;82.92;98143.80;1788676;80;22260;-77
2022/09/15 11:52:34;;;;;;;7.22;4.40;;;;;;;17.95;82.28;98145.47;1788861;80;21144;-77